Time;durP1;ratioP1;P1;durP2;ratioP2;P2;SDS_P1;SDS_P2;PMS_P1;PMS_P2;Temp;Humidity;BMP_temperature;BMP_pressure;BME280_temperature;BME280_humidity;BME280_pressure;Samples;Min_cycle;Max_cycle;Signal;HPM_P1;HPM_P2
2022/10/10 00:00:26;;;;;;;9.45;4.72;;;9.60;99.90;;;;;;5030914;28;20539;-62
2022/10/10 00:02:52;;;;;;;7.55;4.65;;;9.50;99.90;;;;;;5018895;28;20115;-63
2022/10/10 00:05:17;;;;;;;9.13;5.18;;;9.50;99.90;;;;;;5004861;28;20413;-63
2022/10/10 00:07:44;;;;;;;10.95;4.97;;;9.50;99.90;;;;;;5019633;28;20065;-62
2022/10/10 00:10:10;;;;;;;9.50;4.93;;;9.50;99.90;;;;;;5025227;28;20041;-63
2022/10/10 00:12:35;;;;;;;7.55;4.90;;;9.50;99.90;;;;;;5031170;28;20423;-62
2022/10/10 00:15:01;;;;;;;9.38;4.70;;;9.50;99.90;;;;;;5030608;28;20481;-62
2022/10/10 00:17:27;;;;;;;9.77;5.13;;;9.40;99.90;;;;;;5018552;28;20038;-62
2022/10/10 00:19:53;;;;;;;7.28;4.70;;;9.40;99.90;;;;;;5021977;28;20033;-62
2022/10/10 00:22:18;;;;;;;9.80;4.63;;;9.40;99.90;;;;;;5002002;28;20046;-62
2022/10/10 00:24:44;;;;;;;10.43;4.88;;;9.40;99.90;;;;;;5024369;28;20104;-64
2022/10/10 00:27:10;;;;;;;8.00;4.75;;;9.40;99.90;;;;;;5021073;28;20041;-64
2022/10/10 00:29:35;;;;;;;8.10;5.13;;;9.40;99.90;;;;;;5023152;28;20029;-63
2022/10/10 00:32:01;;;;;;;7.70;4.75;;;9.40;99.90;;;;;;5004572;28;20037;-62
2022/10/10 00:34:26;;;;;;;6.78;4.32;;;9.40;99.90;;;;;;5005650;28;20042;-64
2022/10/10 00:36:52;;;;;;;8.75;5.07;;;9.40;99.90;;;;;;5013035;28;20073;-63
2022/10/10 00:39:17;;;;;;;7.70;4.70;;;9.40;99.90;;;;;;5027013;28;20091;-64
2022/10/10 00:41:43;;;;;;;9.43;5.10;;;9.40;99.90;;;;;;5006770;28;20050;-63
2022/10/10 00:44:13;;;;;;;11.27;4.55;;;9.40;99.90;;;;;;5020541;28;20030;-63
2022/10/10 00:46:39;;;;;;;9.10;4.63;;;9.40;99.90;;;;;;5002436;28;20052;-63
2022/10/10 00:49:16;;;;;;;8.18;4.78;;;9.40;99.90;;;;;;5020367;28;20045;-64
2022/10/10 00:51:44;;;;;;;8.30;4.88;;;9.40;99.90;;;;;;4998285;28;20045;-63
2022/10/10 00:54:13;;;;;;;7.65;4.68;;;9.50;99.90;;;;;;5026521;28;20084;-63
2022/10/10 00:56:47;;;;;;;9.48;5.93;;;9.40;99.90;;;;;;5008463;28;20084;-64
2022/10/10 00:59:13;;;;;;;8.35;4.82;;;9.40;99.90;;;;;;5012968;28;20038;-63
2022/10/10 01:01:40;;;;;;;6.22;4.47;;;9.40;99.90;;;;;;5011779;28;20116;-63
2022/10/10 01:04:06;;;;;;;9.00;5.45;;;9.40;99.90;;;;;;5014331;28;20117;-63
2022/10/10 01:06:32;;;;;;;7.03;5.10;;;9.40;99.90;;;;;;5025749;28;20065;-63
2022/10/10 01:08:59;;;;;;;8.65;4.82;;;9.40;99.90;;;;;;5015434;28;20038;-64
2022/10/10 01:11:37;;;;;;;6.88;4.82;;;9.30;99.90;;;;;;5029597;28;20040;-63
2022/10/10 01:14:16;;;;;;;7.65;4.68;;;9.30;99.90;;;;;;5025512;28;20405;-63
2022/10/10 01:17:01;;;;;;;8.55;4.68;;;9.30;99.90;;;;;;5001370;28;20042;-63
2022/10/10 01:19:57;;;;;;;7.13;4.72;;;9.30;99.90;;;;;;5013207;28;20069;-62
2022/10/10 01:22:46;;;;;;;9.05;5.00;;;9.30;99.90;;;;;;5014491;28;20485;-62
2022/10/10 01:25:30;;;;;;;9.95;4.90;;;9.30;99.90;;;;;;4999006;28;20049;-63
2022/10/10 01:28:00;;;;;;;8.88;5.20;;;9.30;99.90;;;;;;5026217;28;20068;-63
2022/10/10 01:30:27;;;;;;;9.57;5.43;;;9.30;99.90;;;;;;5017399;28;20173;-63
2022/10/10 01:33:20;;;;;;;8.23;5.07;;;9.30;99.90;;;;;;5025747;28;20061;-63
2022/10/10 01:35:57;;;;;;;7.80;4.72;;;9.30;99.90;;;;;;5022749;28;20409;-63
2022/10/10 01:38:40;;;;;;;8.23;5.22;;;9.30;99.90;;;;;;5018659;28;20072;-62
2022/10/10 01:41:16;;;;;;;8.02;4.97;;;9.30;99.90;;;;;;5021922;28;20504;-63
2022/10/10 01:43:42;;;;;;;9.95;4.90;;;9.30;99.90;;;;;;5024869;28;20078;-62
2022/10/10 01:46:14;;;;;;;13.02;5.00;;;9.30;99.90;;;;;;5026131;28;20049;-62
2022/10/10 01:48:44;;;;;;;9.60;4.78;;;9.30;99.90;;;;;;5006623;28;20130;-62
2022/10/10 01:51:43;;;;;;;8.40;5.03;;;9.30;99.90;;;;;;5029555;28;20057;-62
2022/10/10 01:54:34;;;;;;;9.02;5.20;;;9.30;99.90;;;;;;5000171;28;20059;-62
2022/10/10 01:57:21;;;;;;;7.95;4.95;;;9.30;99.90;;;;;;5007146;28;20409;-62
2022/10/10 02:00:04;;;;;;;8.55;4.70;;;9.30;99.90;;;;;;5029758;28;20038;-63
2022/10/10 02:02:53;;;;;;;9.95;4.75;;;9.30;99.90;;;;;;5021461;28;20033;-62
2022/10/10 02:05:56;;;;;;;8.43;4.70;;;9.30;99.90;;;;;;5022243;28;20516;-62
2022/10/10 02:08:44;;;;;;;7.72;5.13;;;9.30;99.90;;;;;;5032917;28;20061;-61
2022/10/10 02:11:10;;;;;;;7.07;4.70;;;9.30;99.90;;;;;;5015574;28;20118;-62
2022/10/10 02:13:44;;;;;;;10.02;5.13;;;9.30;99.90;;;;;;5027966;28;20404;-63
2022/10/10 02:16:17;;;;;;;7.97;5.05;;;9.30;99.90;;;;;;5031564;28;20053;-62
2022/10/10 02:18:44;;;;;;;9.23;4.75;;;9.30;99.90;;;;;;5032948;28;20092;-62
2022/10/10 02:21:13;;;;;;;8.23;5.10;;;9.30;99.90;;;;;;5030455;28;20091;-62
2022/10/10 02:23:42;;;;;;;7.00;4.82;;;9.30;99.90;;;;;;5032609;28;20044;-62
2022/10/10 02:26:12;;;;;;;8.55;5.07;;;9.30;99.90;;;;;;5027343;28;20069;-63
2022/10/10 02:28:40;;;;;;;8.95;5.20;;;9.20;99.90;;;;;;5030955;28;20444;-63
2022/10/10 02:31:10;;;;;;;7.65;4.90;;;9.20;99.90;;;;;;5024647;28;20073;-63
2022/10/10 02:34:22;;;;;;;9.05;4.93;;;9.20;99.90;;;;;;5015132;28;20098;-62
2022/10/10 02:36:53;;;;;;;7.20;4.90;;;9.20;99.90;;;;;;5019552;28;20058;-62
2022/10/10 02:39:26;;;;;;;7.95;5.18;;;9.20;99.90;;;;;;5001160;28;20057;-62
2022/10/10 02:41:52;;;;;;;9.13;5.05;;;9.20;99.90;;;;;;5013646;28;20041;-62
2022/10/10 02:44:18;;;;;;;10.27;5.10;;;9.20;99.90;;;;;;5026687;28;20053;-63
2022/10/10 02:46:44;;;;;;;8.02;5.13;;;9.20;99.90;;;;;;5021235;28;20111;-62
2022/10/10 02:49:10;;;;;;;8.75;5.05;;;9.20;99.90;;;;;;5028684;28;20568;-63
2022/10/10 02:51:38;;;;;;;8.75;5.32;;;9.20;99.90;;;;;;5023492;28;20049;-62
2022/10/10 02:54:04;;;;;;;9.82;5.40;;;9.20;99.90;;;;;;5007096;28;20052;-63
2022/10/10 02:56:29;;;;;;;7.90;4.93;;;9.20;99.90;;;;;;5032804;28;20056;-63
2022/10/10 02:58:56;;;;;;;9.82;4.88;;;9.20;99.90;;;;;;5023010;28;20037;-62
2022/10/10 03:01:22;;;;;;;8.43;5.38;;;9.20;99.90;;;;;;5003148;28;20029;-62
2022/10/10 03:03:48;;;;;;;8.73;5.15;;;9.20;99.90;;;;;;5022156;28;20107;-62
2022/10/10 03:06:13;;;;;;;10.18;5.68;;;9.20;99.90;;;;;;5023872;28;20026;-62
2022/10/10 03:08:39;;;;;;;9.43;5.32;;;9.10;99.90;;;;;;5019501;28;20227;-62
2022/10/10 03:11:05;;;;;;;7.50;5.05;;;9.20;99.90;;;;;;5021721;28;20046;-62
2022/10/10 03:13:31;;;;;;;9.38;5.25;;;9.10;99.90;;;;;;5022862;28;20044;-62
2022/10/10 03:15:56;;;;;;;12.32;5.88;;;9.10;99.90;;;;;;5006374;28;20041;-62
2022/10/10 03:18:22;;;;;;;11.20;5.20;;;9.10;99.90;;;;;;5028192;28;20034;-62
2022/10/10 03:20:55;;;;;;;7.85;5.38;;;9.10;99.90;;;;;;5023511;28;20490;-62
2022/10/10 03:23:22;;;;;;;11.77;5.57;;;9.10;99.90;;;;;;5026970;28;20041;-62
2022/10/10 03:25:48;;;;;;;9.27;5.50;;;9.10;99.90;;;;;;5029590;28;20402;-62
2022/10/10 03:28:14;;;;;;;7.93;5.22;;;9.10;99.90;;;;;;5031985;28;20041;-62
2022/10/10 03:30:40;;;;;;;9.13;5.72;;;9.10;99.90;;;;;;5018569;28;21010;-62
2022/10/10 03:33:07;;;;;;;10.05;5.55;;;9.10;99.90;;;;;;5020404;28;20083;-62
2022/10/10 03:35:32;;;;;;;9.27;5.65;;;9.10;99.90;;;;;;5023425;28;20041;-62
2022/10/10 03:37:59;;;;;;;10.18;5.15;;;9.10;99.90;;;;;;5021037;28;20040;-62
2022/10/10 03:40:26;;;;;;;8.98;5.22;;;9.00;99.90;;;;;;5019895;28;20034;-63
2022/10/10 03:42:52;;;;;;;9.13;5.38;;;9.10;99.90;;;;;;5023392;28;20040;-62
2022/10/10 03:45:18;;;;;;;7.72;5.60;;;9.00;99.90;;;;;;5031547;28;20026;-62
2022/10/10 03:47:44;;;;;;;9.07;5.60;;;9.00;99.90;;;;;;5017456;28;20100;-63
2022/10/10 03:50:09;;;;;;;7.82;5.38;;;9.00;99.90;;;;;;5013252;28;20048;-62
2022/10/10 03:52:35;;;;;;;9.57;5.45;;;9.00;99.90;;;;;;5023896;28;20063;-63
2022/10/10 03:55:01;;;;;;;9.00;5.30;;;9.00;99.90;;;;;;5017714;28;20089;-62
2022/10/10 03:57:26;;;;;;;8.82;5.80;;;9.00;99.90;;;;;;5019051;28;20048;-63
2022/10/10 03:59:52;;;;;;;10.98;5.70;;;9.00;99.90;;;;;;5006637;28;20113;-62
2022/10/10 04:02:18;;;;;;;9.20;5.43;;;9.00;99.90;;;;;;5013234;28;20030;-61
2022/10/10 04:04:43;;;;;;;9.10;6.43;;;9.00;99.90;;;;;;5022966;28;20400;-62
2022/10/10 04:07:09;;;;;;;9.05;5.68;;;8.90;99.90;;;;;;5019556;28;20037;-62
2022/10/10 04:09:34;;;;;;;9.90;5.85;;;9.00;99.90;;;;;;5019741;28;20486;-62
2022/10/10 04:12:00;;;;;;;10.02;6.55;;;9.00;99.90;;;;;;5023048;28;20383;-62
2022/10/10 04:14:26;;;;;;;8.88;5.38;;;8.90;99.90;;;;;;5007589;28;20125;-62
2022/10/10 04:16:52;;;;;;;8.95;6.20;;;9.00;99.90;;;;;;5019205;28;20033;-63
2022/10/10 04:19:21;;;;;;;10.10;6.45;;;8.90;99.90;;;;;;5013115;28;20057;-63
2022/10/10 04:21:46;;;;;;;9.98;5.68;;;8.90;99.90;;;;;;5024906;28;20450;-63
2022/10/10 04:24:12;;;;;;;10.95;6.03;;;8.90;99.90;;;;;;5028947;28;20041;-62
2022/10/10 04:26:37;;;;;;;8.38;6.07;;;8.90;99.90;;;;;;5019456;28;20073;-63
2022/10/10 04:29:03;;;;;;;9.25;5.82;;;8.90;99.90;;;;;;5024792;28;20072;-62
2022/10/10 04:31:29;;;;;;;9.40;5.80;;;8.80;99.90;;;;;;5028712;28;20068;-63
2022/10/10 04:33:55;;;;;;;9.75;6.22;;;8.80;99.90;;;;;;5025141;28;20051;-62
2022/10/10 04:36:20;;;;;;;11.00;6.18;;;8.80;99.90;;;;;;5027598;28;20368;-62
2022/10/10 04:38:46;;;;;;;11.65;5.93;;;8.80;99.90;;;;;;5011829;28;20411;-63
2022/10/10 04:41:12;;;;;;;8.00;5.60;;;8.80;99.90;;;;;;5012444;28;20037;-63
2022/10/10 04:43:37;;;;;;;11.38;5.90;;;8.80;99.90;;;;;;5023535;28;20029;-63
2022/10/10 04:46:03;;;;;;;11.18;6.05;;;8.70;99.90;;;;;;5020867;28;20421;-62
2022/10/10 04:48:29;;;;;;;9.88;5.47;;;8.80;99.90;;;;;;5009603;28;20046;-62
2022/10/10 04:50:57;;;;;;;11.85;7.00;;;8.70;99.90;;;;;;5009472;28;20048;-62
2022/10/10 04:53:23;;;;;;;10.18;6.13;;;8.70;99.90;;;;;;5019266;28;20050;-63
2022/10/10 04:55:48;;;;;;;10.00;6.30;;;8.80;99.90;;;;;;5025800;28;20041;-61
2022/10/10 04:58:14;;;;;;;13.77;6.22;;;8.70;99.90;;;;;;5024512;28;20038;-62
2022/10/10 05:00:40;;;;;;;11.50;6.30;;;8.70;99.90;;;;;;5005927;28;20478;-62
2022/10/10 05:03:08;;;;;;;11.35;6.70;;;8.70;99.90;;;;;;5014032;28;20041;-62
2022/10/10 05:05:34;;;;;;;11.20;6.80;;;8.70;99.90;;;;;;5016199;28;20038;-62
2022/10/10 05:07:59;;;;;;;10.00;6.55;;;8.70;99.90;;;;;;5023219;28;20103;-62
2022/10/10 05:10:25;;;;;;;9.52;6.30;;;8.70;99.90;;;;;;5028956;28;20486;-63
2022/10/10 05:12:51;;;;;;;11.60;6.75;;;8.70;99.90;;;;;;5024007;28;20045;-62
2022/10/10 05:15:18;;;;;;;11.65;6.70;;;8.70;99.90;;;;;;5024656;28;20082;-62
2022/10/10 05:17:44;;;;;;;12.65;6.68;;;8.70;99.90;;;;;;5014031;28;20045;-62
2022/10/10 05:20:10;;;;;;;11.63;6.88;;;8.60;99.90;;;;;;5014309;28;20536;-62
2022/10/10 05:22:36;;;;;;;13.57;6.60;;;8.60;99.90;;;;;;5012027;28;20037;-62
2022/10/10 05:25:02;;;;;;;10.90;5.88;;;8.60;99.90;;;;;;5026687;28;20448;-62
2022/10/10 05:27:28;;;;;;;13.00;6.50;;;8.60;99.90;;;;;;5007273;28;20168;-62
2022/10/10 05:29:54;;;;;;;9.70;6.03;;;8.60;99.90;;;;;;5017463;28;20038;-62
2022/10/10 05:32:21;;;;;;;9.85;6.22;;;8.60;99.90;;;;;;5023925;28;20461;-63
2022/10/10 05:34:47;;;;;;;10.15;6.63;;;8.60;99.90;;;;;;5001527;28;20060;-62
2022/10/10 05:37:13;;;;;;;9.95;6.57;;;8.60;99.90;;;;;;5013693;28;20107;-62
2022/10/10 05:39:38;;;;;;;12.27;6.25;;;8.60;99.90;;;;;;5020510;28;20375;-62
2022/10/10 05:42:04;;;;;;;11.85;6.22;;;8.60;99.90;;;;;;5017731;28;20092;-62
2022/10/10 05:44:30;;;;;;;10.60;6.13;;;8.60;99.90;;;;;;5020763;28;20041;-62
2022/10/10 05:46:56;;;;;;;14.10;6.78;;;8.60;99.90;;;;;;5025782;28;20037;-63
2022/10/10 05:49:22;;;;;;;11.52;6.30;;;8.60;99.90;;;;;;5026331;28;20440;-62
2022/10/10 05:51:47;;;;;;;9.43;6.40;;;8.60;99.90;;;;;;4998018;28;20045;-62
2022/10/10 05:54:13;;;;;;;12.13;6.80;;;8.60;99.90;;;;;;5003245;28;20037;-62
2022/10/10 05:56:39;;;;;;;10.00;6.47;;;8.60;99.90;;;;;;5026524;28;20037;-62
2022/10/10 05:59:04;;;;;;;11.02;6.35;;;8.60;99.90;;;;;;5023170;28;20389;-62
2022/10/10 06:01:30;;;;;;;10.10;6.93;;;8.60;99.90;;;;;;5020434;28;20034;-62
2022/10/10 06:03:56;;;;;;;12.27;6.75;;;8.50;99.90;;;;;;5029019;28;20405;-62
2022/10/10 06:06:22;;;;;;;12.38;6.55;;;8.50;99.90;;;;;;5029108;28;20038;-63
2022/10/10 06:08:48;;;;;;;13.35;7.30;;;8.50;99.90;;;;;;5020512;28;20044;-62
2022/10/10 06:11:16;;;;;;;10.65;6.72;;;8.50;99.90;;;;;;5022951;28;20042;-61
2022/10/10 06:13:42;;;;;;;13.35;6.90;;;8.50;99.90;;;;;;5021842;28;20033;-63
2022/10/10 06:16:07;;;;;;;12.45;6.38;;;8.50;99.90;;;;;;5022983;28;20383;-63
2022/10/10 06:18:33;;;;;;;11.27;7.05;;;8.50;99.90;;;;;;4987907;28;1080259;-62
2022/10/10 06:21:04;;;;;;;11.25;6.70;;;8.50;99.90;;;;;;5016646;28;20049;-62
2022/10/10 06:23:31;;;;;;;12.80;6.93;;;8.50;99.90;;;;;;5028436;28;20049;-62
2022/10/10 06:25:56;;;;;;;11.77;6.47;;;8.50;99.90;;;;;;5031887;28;20049;-61
2022/10/10 06:28:22;;;;;;;11.38;6.88;;;8.50;99.90;;;;;;5017675;28;20026;-63
2022/10/10 06:30:49;;;;;;;12.75;6.97;;;8.50;99.90;;;;;;5019031;28;20026;-62
2022/10/10 06:33:17;;;;;;;12.57;6.78;;;8.50;99.90;;;;;;5017544;28;20371;-62
2022/10/10 06:35:46;;;;;;;11.63;6.88;;;8.50;99.90;;;;;;5032803;28;20041;-62
2022/10/10 06:38:12;;;;;;;11.05;6.70;;;8.50;99.90;;;;;;5014563;28;20081;-62
2022/10/10 06:40:39;;;;;;;10.88;6.57;;;8.50;99.90;;;;;;5028674;28;20064;-62
2022/10/10 06:43:10;;;;;;;10.73;6.68;;;8.50;99.90;;;;;;5032940;28;20041;-62
2022/10/10 06:45:37;;;;;;;12.18;6.88;;;8.40;99.90;;;;;;5006567;28;20095;-62
2022/10/10 06:48:02;;;;;;;10.77;7.00;;;8.50;99.90;;;;;;5021464;28;20045;-63
2022/10/10 06:50:28;;;;;;;12.85;7.15;;;8.50;99.90;;;;;;5024191;28;20559;-63
2022/10/10 06:52:57;;;;;;;10.85;7.05;;;8.50;99.90;;;;;;5024665;28;20046;-62
2022/10/10 06:55:23;;;;;;;13.38;6.68;;;8.50;99.90;;;;;;5024689;28;20026;-62
2022/10/10 06:57:48;;;;;;;11.68;7.10;;;8.60;99.90;;;;;;5006402;28;20103;-62
2022/10/10 07:00:14;;;;;;;11.55;6.80;;;8.60;99.90;;;;;;5023822;28;20124;-62
2022/10/10 07:02:40;;;;;;;11.55;6.55;;;8.70;99.90;;;;;;5024231;28;20072;-62
2022/10/10 07:05:09;;;;;;;10.27;7.00;;;8.70;99.90;;;;;;5022783;28;20041;-61
2022/10/10 07:07:35;;;;;;;10.60;6.60;;;8.70;99.90;;;;;;5001266;28;20042;-62
2022/10/10 07:10:01;;;;;;;12.50;7.15;;;8.70;99.90;;;;;;5020645;28;20045;-63
2022/10/10 07:12:27;;;;;;;12.63;6.88;;;8.70;99.90;;;;;;5027916;28;20071;-61
2022/10/10 07:14:52;;;;;;;15.63;7.22;;;8.70;99.90;;;;;;5026117;28;20554;-61
2022/10/10 07:17:18;;;;;;;10.35;6.40;;;8.80;99.90;;;;;;5023397;28;20084;-62
2022/10/10 07:19:43;;;;;;;9.90;6.80;;;8.70;99.90;;;;;;5023814;28;20069;-63
2022/10/10 07:22:09;;;;;;;9.77;6.45;;;8.80;99.90;;;;;;5023876;28;20049;-64
2022/10/10 07:24:35;;;;;;;12.95;6.93;;;8.90;99.90;;;;;;5021727;28;20032;-63
2022/10/10 07:27:01;;;;;;;11.05;7.07;;;8.90;99.90;;;;;;5023063;28;20516;-63
2022/10/10 07:29:29;;;;;;;14.63;7.10;;;8.90;99.90;;;;;;5019928;28;20072;-63
2022/10/10 07:31:55;;;;;;;10.90;6.95;;;8.90;99.90;;;;;;5022151;28;20042;-63
2022/10/10 07:34:20;;;;;;;11.90;6.90;;;9.00;99.90;;;;;;5031765;28;20042;-61
2022/10/10 07:36:49;;;;;;;13.60;7.28;;;9.00;99.90;;;;;;5023565;28;20031;-63
2022/10/10 07:39:24;;;;;;;12.25;7.20;;;9.00;99.90;;;;;;5022711;28;20460;-61
2022/10/10 07:41:50;;;;;;;12.55;7.53;;;9.10;99.90;;;;;;5023711;28;20076;-64
2022/10/10 07:44:17;;;;;;;10.98;6.93;;;9.10;99.90;;;;;;5024360;28;20684;-64
2022/10/10 07:46:43;;;;;;;14.80;7.57;;;9.20;99.90;;;;;;5025694;28;20087;-60
2022/10/10 07:49:09;;;;;;;12.50;7.57;;;9.20;99.90;;;;;;5002052;28;20042;-64
2022/10/10 07:51:35;;;;;;;13.32;7.55;;;9.30;99.90;;;;;;4996769;28;20034;-63
2022/10/10 07:54:01;;;;;;;11.65;7.38;;;9.30;99.90;;;;;;5028707;28;20044;-63
2022/10/10 07:56:26;;;;;;;12.75;6.88;;;9.40;99.90;;;;;;5025534;28;20038;-63
2022/10/10 07:58:52;;;;;;;12.63;7.97;;;9.40;99.90;;;;;;5030556;28;20091;-63
2022/10/10 08:01:18;;;;;;;15.27;7.38;;;9.40;99.90;;;;;;5029729;28;20144;-63
2022/10/10 08:03:45;;;;;;;11.35;7.65;;;9.50;99.90;;;;;;5024591;28;20030;-63
2022/10/10 08:06:16;;;;;;;17.83;7.50;;;9.50;99.90;;;;;;5015648;28;20037;-63
2022/10/10 08:08:42;;;;;;;11.55;7.90;;;9.60;99.90;;;;;;5023301;28;20095;-62
2022/10/10 08:11:08;;;;;;;14.65;8.07;;;9.60;99.90;;;;;;5021032;28;20494;-63
2022/10/10 08:13:35;;;;;;;12.50;8.18;;;9.70;99.90;;;;;;5016854;28;20041;-64
2022/10/10 08:16:02;;;;;;;14.25;8.15;;;9.70;99.90;;;;;;5011764;28;20113;-63
2022/10/10 08:18:27;;;;;;;12.88;7.72;;;9.80;99.90;;;;;;5025643;28;20475;-62
2022/10/10 08:21:05;;;;;;;12.85;8.35;;;9.80;99.90;;;;;;5030540;28;20120;-63
2022/10/10 08:23:31;;;;;;;14.25;7.82;;;9.90;99.90;;;;;;5026032;28;20040;-63
2022/10/10 08:25:59;;;;;;;10.73;6.95;;;9.90;99.90;;;;;;5005342;28;20456;-63
2022/10/10 08:28:25;;;;;;;11.73;8.13;;;10.00;99.90;;;;;;5030476;28;20045;-63
2022/10/10 08:30:51;;;;;;;13.93;8.23;;;10.10;99.90;;;;;;5024786;28;20136;-63
2022/10/10 08:33:17;;;;;;;14.50;8.23;;;10.20;99.90;;;;;;5019609;28;20514;-64
2022/10/10 08:35:42;;;;;;;14.73;8.10;;;10.40;99.90;;;;;;5017104;28;20549;-63
2022/10/10 08:38:08;;;;;;;13.10;7.22;;;10.50;99.90;;;;;;5030394;28;20129;-63
2022/10/10 08:40:42;;;;;;;12.73;7.90;;;10.60;99.90;;;;;;5021938;28;20034;-63
2022/10/10 08:43:08;;;;;;;12.07;7.03;;;10.70;99.90;;;;;;5027924;28;20037;-63
2022/10/10 08:45:37;;;;;;;17.92;7.60;;;10.80;99.90;;;;;;4998678;28;20041;-63
2022/10/10 08:48:13;;;;;;;15.32;8.13;;;11.00;99.90;;;;;;5026007;28;20091;-62
2022/10/10 08:50:44;;;;;;;14.98;7.43;;;11.00;99.90;;;;;;5021792;28;20444;-64
2022/10/10 08:53:19;;;;;;;13.25;7.47;;;11.20;99.90;;;;;;5027293;28;20112;-64
2022/10/10 08:55:45;;;;;;;11.27;6.90;;;11.30;99.90;;;;;;5025048;28;20037;-61
2022/10/10 08:58:22;;;;;;;12.30;7.20;;;11.40;99.90;;;;;;5021962;28;20398;-63
2022/10/10 09:01:14;;;;;;;15.13;7.22;;;11.40;99.90;;;;;;5023664;28;20044;-62
2022/10/10 09:03:49;;;;;;;14.88;6.72;;;11.50;99.90;;;;;;5024880;28;20397;-63
2022/10/10 09:06:18;;;;;;;16.70;7.18;;;11.60;99.90;;;;;;5020071;28;20048;-63
2022/10/10 09:08:58;;;;;;;15.60;7.30;;;11.60;99.90;;;;;;5023384;28;20096;-63
2022/10/10 09:11:35;;;;;;;10.93;7.43;;;11.70;99.90;;;;;;5009506;28;20397;-63
2022/10/10 09:14:38;;;;;;;14.43;6.75;;;11.70;99.90;;;;;;5021394;28;20494;-63
2022/10/10 09:17:34;;;;;;;14.50;7.20;;;11.80;99.90;;;;;;5032858;28;20041;-63
2022/10/10 09:20:09;;;;;;;15.90;7.07;;;11.90;99.90;;;;;;5019821;28;20122;-64
2022/10/10 09:22:45;;;;;;;17.13;7.32;;;11.90;99.90;;;;;;5029276;28;20038;-63
2022/10/10 09:25:22;;;;;;;11.10;7.00;;;12.00;99.90;;;;;;5015099;28;20049;-64
2022/10/10 09:28:04;;;;;;;11.07;7.15;;;12.10;99.90;;;;;;5009881;28;20068;-62
2022/10/10 09:30:34;;;;;;;12.52;7.07;;;12.20;99.90;;;;;;5025513;28;20036;-63
2022/10/10 09:33:17;;;;;;;10.55;7.00;;;12.30;99.90;;;;;;5026077;28;20034;-62
2022/10/10 09:35:44;;;;;;;10.10;6.55;;;12.50;99.90;;;;;;5033922;28;20386;-63
2022/10/10 09:38:09;;;;;;;12.95;7.68;;;12.60;99.90;;;;;;5032202;28;20045;-62
2022/10/10 09:41:00;;;;;;;10.43;6.85;;;12.70;99.90;;;;;;5029125;28;20025;-64
2022/10/10 09:43:31;;;;;;;11.18;6.43;;;12.80;99.90;;;;;;5010833;28;20049;-64
2022/10/10 09:45:57;;;;;;;14.35;7.28;;;12.90;99.90;;;;;;5011746;28;20117;-61
2022/10/10 09:48:33;;;;;;;12.63;7.03;;;13.00;99.90;;;;;;5012141;28;20128;-64
2022/10/10 09:51:01;;;;;;;13.70;7.40;;;13.00;99.90;;;;;;5030713;28;20038;-64
2022/10/10 09:53:27;;;;;;;9.98;6.60;;;13.10;99.90;;;;;;5023692;28;20099;-63
2022/10/10 09:55:53;;;;;;;14.00;7.05;;;13.20;99.90;;;;;;5031955;28;20045;-63
2022/10/10 09:58:43;;;;;;;14.05;6.90;;;13.30;99.90;;;;;;5030334;28;20441;-64
2022/10/10 10:01:20;;;;;;;13.13;6.68;;;13.20;99.90;;;;;;5023078;28;20061;-64
2022/10/10 10:04:18;;;;;;;14.45;7.00;;;13.30;99.90;;;;;;5028836;28;20042;-64
2022/10/10 10:06:49;;;;;;;12.73;7.15;;;13.40;99.90;;;;;;5024167;28;20034;-64
2022/10/10 10:09:22;;;;;;;12.35;6.93;;;13.50;99.90;;;;;;5025572;28;20483;-64
2022/10/10 10:11:54;;;;;;;14.88;6.95;;;13.60;99.90;;;;;;5012882;28;20052;-64
2022/10/10 10:14:27;;;;;;;10.98;6.93;;;13.60;99.90;;;;;;4998238;28;20034;-64
2022/10/10 10:17:03;;;;;;;11.25;6.47;;;13.60;99.90;;;;;;5016292;28;20030;-63
2022/10/10 10:19:37;;;;;;;11.02;6.32;;;13.60;99.90;;;;;;5010584;28;20100;-62
2022/10/10 10:22:04;;;;;;;10.55;6.63;;;13.70;99.90;;;;;;5029012;28;20076;-64
2022/10/10 10:24:35;;;;;;;11.52;6.70;;;13.80;99.90;;;;;;4999962;28;20495;-64
2022/10/10 10:27:21;;;;;;;9.10;6.20;;;13.80;99.90;;;;;;5022570;28;20042;-65
2022/10/10 10:29:55;;;;;;;10.75;6.68;;;13.90;99.90;;;;;;5028689;28;20037;-63
2022/10/10 10:32:45;;;;;;;13.38;6.95;;;13.90;99.90;;;;;;5021545;28;20038;-64
2022/10/10 10:35:33;;;;;;;11.93;6.45;;;14.00;99.90;;;;;;5008705;28;20537;-64
2022/10/10 10:38:41;;;;;;;11.50;6.45;;;13.90;99.90;;;;;;5020203;28;20075;-63
2022/10/10 10:41:21;;;;;;;9.55;6.63;;;14.00;99.90;;;;;;4953636;28;20618;-64
2022/10/10 10:44:17;;;;;;;12.40;5.95;;;14.00;99.90;;;;;;5025640;28;20230;-65
2022/10/10 10:47:21;;;;;;;10.07;6.40;;;14.10;99.90;;;;;;5009676;28;20042;-65
2022/10/10 10:50:21;;;;;;;10.23;6.00;;;14.10;99.90;;;;;;5020049;28;20033;-64
2022/10/10 10:53:18;;;;;;;11.85;6.35;;;14.10;99.90;;;;;;5030666;28;20042;-65
2022/10/10 10:56:07;;;;;;;12.30;6.22;;;14.10;99.90;;;;;;5015114;28;20693;-64
2022/10/10 10:58:57;;;;;;;12.20;6.43;;;14.10;99.90;;;;;;5002898;28;20109;-64
2022/10/10 11:01:31;;;;;;;10.70;6.72;;;14.10;99.90;;;;;;5030172;28;20483;-64
2022/10/10 11:04:35;;;;;;;11.07;6.90;;;14.10;99.90;;;;;;5013268;28;20052;-64
2022/10/10 11:07:18;;;;;;;9.18;5.93;;;14.20;99.90;;;;;;5019443;28;20124;-64
2022/10/10 11:10:20;;;;;;;12.27;6.43;;;14.20;99.90;;;;;;5022392;28;20042;-64
2022/10/10 11:13:05;;;;;;;14.18;6.80;;;14.30;99.90;;;;;;5011920;28;20087;-64
2022/10/10 11:15:37;;;;;;;11.73;6.82;;;14.30;99.90;;;;;;5024460;28;20410;-64
2022/10/10 11:18:11;;;;;;;9.98;6.47;;;14.30;99.90;;;;;;5011124;28;20056;-63
2022/10/10 11:20:48;;;;;;;10.88;6.55;;;14.50;99.90;;;;;;5002414;28;20132;-64
2022/10/10 11:23:26;;;;;;;10.68;6.85;;;14.50;99.90;;;;;;5013422;28;20370;-64
2022/10/10 11:25:57;;;;;;;13.38;6.55;;;14.60;99.90;;;;;;5010170;28;20067;-64
2022/10/10 11:28:39;;;;;;;10.87;6.60;;;14.70;99.90;;;;;;5031608;28;20501;-64
2022/10/10 11:31:26;;;;;;;10.98;5.80;;;14.70;99.90;;;;;;5029571;28;20037;-65
2022/10/10 11:33:58;;;;;;;9.50;6.20;;;14.80;99.90;;;;;;5031140;28;20049;-64
2022/10/10 11:36:29;;;;;;;11.57;6.63;;;14.70;99.90;;;;;;5017612;28;20037;-64
2022/10/10 11:39:03;;;;;;;10.32;6.07;;;14.70;99.90;;;;;;5027760;28;20041;-64
2022/10/10 11:41:38;;;;;;;11.70;6.13;;;14.60;99.90;;;;;;5024679;28;20406;-64
2022/10/10 11:44:16;;;;;;;10.73;5.90;;;14.50;99.90;;;;;;5024392;28;20500;-64
2022/10/10 11:46:50;;;;;;;20.40;6.38;;;14.50;99.90;;;;;;5027373;28;20041;-64
2022/10/10 11:49:25;;;;;;;9.35;6.07;;;14.40;99.90;;;;;;5014994;28;20037;-64
2022/10/10 11:51:56;;;;;;;8.70;6.05;;;14.40;99.90;;;;;;5022100;28;20131;-64
2022/10/10 11:54:47;;;;;;;11.57;6.03;;;14.40;99.90;;;;;;4996922;28;20148;-64
2022/10/10 11:57:34;;;;;;;12.60;6.60;;;14.30;99.90;;;;;;5021046;28;20073;-64
2022/10/10 12:00:20;;;;;;;16.58;6.63;;;14.30;99.90;;;;;;5027719;28;20124;-64
2022/10/10 12:02:46;;;;;;;9.52;6.25;;;14.30;99.90;;;;;;5018581;28;20127;-63
2022/10/10 12:05:24;;;;;;;10.57;5.95;;;14.30;99.90;;;;;;5013467;28;20041;-64
2022/10/10 12:08:00;;;;;;;10.07;5.70;;;14.30;99.90;;;;;;5015877;28;20046;-64
2022/10/10 12:10:51;;;;;;;10.38;6.25;;;14.30;99.90;;;;;;5016208;28;20042;-65
2022/10/10 12:13:41;;;;;;;11.32;5.88;;;14.30;99.90;;;;;;5028336;28;20276;-65
2022/10/10 12:16:12;;;;;;;13.45;6.15;;;14.30;99.90;;;;;;5021570;28;20041;-64
2022/10/10 12:18:44;;;;;;;11.13;6.18;;;14.30;99.90;;;;;;4998709;28;20085;-64
2022/10/10 12:21:16;;;;;;;10.60;6.78;;;14.40;99.90;;;;;;5028985;28;20494;-65
2022/10/10 12:24:07;;;;;;;11.77;6.57;;;14.40;99.90;;;;;;5023724;28;20490;-64
2022/10/10 12:26:51;;;;;;;10.88;6.47;;;14.40;99.90;;;;;;5024101;28;20033;-64
2022/10/10 12:29:45;;;;;;;12.93;7.00;;;14.40;99.90;;;;;;5024376;28;20440;-64
2022/10/10 12:32:14;;;;;;;12.82;7.47;;;14.40;99.90;;;;;;5027427;28;20041;-64
2022/10/10 12:34:42;;;;;;;13.05;7.65;;;14.40;99.90;;;;;;5013343;28;20462;-65
2022/10/10 12:37:27;;;;;;;12.68;8.07;;;14.30;99.90;;;;;;5008109;28;20095;-64
2022/10/10 12:40:12;;;;;;;14.38;7.90;;;14.30;99.90;;;;;;5023196;28;20663;-64
2022/10/10 12:42:38;;;;;;;14.77;7.82;;;14.20;99.90;;;;;;5021310;28;20037;-64
2022/10/10 12:45:32;;;;;;;15.18;7.82;;;14.20;99.90;;;;;;4987647;28;20100;-64
2022/10/10 12:48:00;;;;;;;14.10;7.45;;;14.10;99.90;;;;;;5009479;28;20075;-65
2022/10/10 12:50:55;;;;;;;16.05;8.32;;;14.20;99.90;;;;;;4996258;28;20041;-64
2022/10/10 12:53:23;;;;;;;13.70;8.13;;;14.10;99.90;;;;;;5004706;28;20041;-62
2022/10/10 12:55:52;;;;;;;17.65;8.15;;;14.10;99.90;;;;;;5028930;28;20103;-63
2022/10/10 12:58:21;;;;;;;15.70;8.75;;;14.00;99.90;;;;;;5022486;28;20657;-61
2022/10/10 13:00:47;;;;;;;17.90;8.75;;;14.00;99.90;;;;;;5011854;28;20069;-61
2022/10/10 13:03:19;;;;;;;16.38;9.35;;;13.90;99.90;;;;;;5025014;28;20414;-65
2022/10/10 13:05:46;;;;;;;17.33;8.98;;;13.90;99.90;;;;;;5022977;28;20034;-62
2022/10/10 13:08:16;;;;;;;16.65;9.57;;;13.80;99.90;;;;;;5027194;28;20601;-65
2022/10/10 13:10:43;;;;;;;17.23;8.82;;;13.80;99.90;;;;;;5021210;28;20049;-62